Time;durP1;ratioP1;P1;durP2;ratioP2;P2;SDS_P1;SDS_P2;PMS_P1;PMS_P2;Temp;Humidity;BMP_temperature;BMP_pressure;BME280_temperature;BME280_humidity;BME280_pressure;Samples;Min_cycle;Max_cycle;Signal;HPM_P1;HPM_P2
2021/04/12 00:00:42;;;;;;;7.65;3.95;;;10.60;60.60;;;;;;4253802;33;20061;-39
2021/04/12 00:03:29;;;;;;;11.48;5.65;;;10.60;60.80;;;;;;4237345;33;20097;-39
2021/04/12 00:06:25;;;;;;;10.93;6.00;;;10.50;60.80;;;;;;4246177;33;20084;-39
2021/04/12 00:09:08;;;;;;;14.40;6.10;;;10.50;61.00;;;;;;4243041;33;20069;-38
2021/04/12 00:12:15;;;;;;;12.25;5.57;;;10.50;61.00;;;;;;4255149;33;20084;-38
2021/04/12 00:14:53;;;;;;;13.60;5.78;;;10.50;61.00;;;;;;4257800;33;20144;-39
2021/04/12 00:17:19;;;;;;;15.48;7.62;;;10.50;60.90;;;;;;4239550;33;20081;-39
2021/04/12 00:20:01;;;;;;;12.65;6.30;;;10.50;61.20;;;;;;4227976;33;20129;-38
2021/04/12 00:22:34;;;;;;;13.32;7.35;;;10.50;61.20;;;;;;4224680;33;20660;-38
2021/04/12 00:25:18;;;;;;;12.95;6.15;;;10.50;61.20;;;;;;4214144;34;20133;-40
2021/04/12 00:27:57;;;;;;;11.05;6.00;;;10.40;61.20;;;;;;4234337;33;20139;-38
2021/04/12 00:31:12;;;;;;;12.05;5.30;;;10.40;61.30;;;;;;4212571;33;20156;-38
2021/04/12 00:34:13;;;;;;;15.65;7.80;;;10.50;61.40;;;;;;4188994;34;20195;-40
2021/04/12 00:37:09;;;;;;;16.30;8.43;;;10.50;61.20;;;;;;4191318;34;20098;-39
2021/04/12 00:39:52;;;;;;;;;;;10.50;61.30;;;;;;4208515;33;20077;-39
2021/04/12 00:42:54;;;;;;;16.83;9.45;;;10.40;61.30;;;;;;4227866;33;19969;-38
2021/04/12 00:45:46;;;;;;;14.82;8.30;;;10.40;61.50;;;;;;4174722;34;20528;-39
2021/04/12 00:48:40;;;;;;;11.32;5.15;;;10.40;61.60;;;;;;4200032;34;20074;-39
2021/04/12 00:51:35;;;;;;;9.30;4.53;;;10.40;61.60;;;;;;4201753;34;20066;-40
2021/04/12 00:54:07;;;;;;;17.60;8.38;;;10.40;61.60;;;;;;4237537;33;20099;-40
2021/04/12 00:56:41;;;;;;;10.57;4.33;;;10.50;61.60;;;;;;4267591;33;20069;-38
2021/04/12 00:59:19;;;;;;;5.55;3.12;;;10.50;61.60;;;;;;4255589;33;20196;-39
2021/04/12 01:02:07;;;;;;;13.00;5.60;;;10.50;61.60;;;;;;4224620;33;20226;-38
2021/04/12 01:05:17;;;;;;;17.02;7.05;;;10.60;61.40;;;;;;4201326;34;20579;-39
2021/04/12 01:08:02;;;;;;;3.72;2.37;;;10.60;61.30;;;;;;4201973;34;20069;-39
2021/04/12 01:11:01;;;;;;;14.00;6.25;;;10.60;61.30;;;;;;4210181;34;20134;-39
2021/04/12 01:13:43;;;;;;;9.32;2.97;;;10.70;61.30;;;;;;4208791;34;20089;-39
2021/04/12 01:16:31;;;;;;;9.02;3.17;;;10.80;61.20;;;;;;4214156;33;20486;-39
2021/04/12 01:19:15;;;;;;;7.82;3.92;;;10.80;61.60;;;;;;4210713;34;20083;-38
2021/04/12 01:22:11;;;;;;;21.75;10.40;;;10.90;60.80;;;;;;4187386;33;20551;-39
2021/04/12 01:24:49;;;;;;;;;;;11.00;60.80;;;;;;4241815;33;20161;-40
2021/04/12 01:27:50;;;;;;;15.02;6.43;;;11.10;61.20;;;;;;4241290;33;19960;-38
2021/04/12 01:30:47;;;;;;;10.77;4.75;;;11.10;60.20;;;;;;4257655;33;20625;-38
2021/04/12 01:33:38;;;;;;;19.40;11.38;;;11.10;60.10;;;;;;4261536;33;20091;-39
2021/04/12 01:36:42;;;;;;;3.80;1.35;;;11.10;60.20;;;;;;4272429;33;20103;-39
2021/04/12 01:39:47;;;;;;;4.10;1.62;;;11.20;60.30;;;;;;4284045;33;20080;-39
2021/04/12 01:42:22;;;;;;;16.90;6.55;;;11.20;60.20;;;;;;4284142;33;20106;-40
2021/04/12 01:45:15;;;;;;;16.30;7.55;;;11.20;60.00;;;;;;4283876;33;20085;-38
2021/04/12 01:48:12;;;;;;;24.45;9.65;;;11.30;60.00;;;;;;4269513;33;20072;-40
2021/04/12 01:51:10;;;;;;;25.55;13.95;;;11.30;60.00;;;;;;4288929;33;20095;-39
2021/04/12 01:54:05;;;;;;;18.92;10.77;;;11.30;59.90;;;;;;4269007;33;20188;-39
2021/04/12 01:57:15;;;;;;;3.50;2.00;;;11.40;59.80;;;;;;4245609;33;20150;-39
2021/04/12 01:59:56;;;;;;;16.35;6.20;;;11.40;59.60;;;;;;4254271;33;20088;-39
2021/04/12 02:02:51;;;;;;;17.83;7.50;;;11.40;59.50;;;;;;4254560;33;20183;-39
2021/04/12 02:06:01;;;;;;;12.77;5.87;;;11.40;59.60;;;;;;4243304;33;20160;-39
2021/04/12 02:08:42;;;;;;;4.25;3.12;;;11.40;59.50;;;;;;4254689;33;20163;-40
2021/04/12 02:11:33;;;;;;;12.85;5.95;;;11.40;59.40;;;;;;4254906;33;20099;-39
2021/04/12 02:14:37;;;;;;;11.52;4.78;;;11.40;59.30;;;;;;4243095;33;20084;-39
2021/04/12 02:17:54;;;;;;;7.72;2.80;;;11.40;59.50;;;;;;4242628;33;20077;-41
2021/04/12 02:20:59;;;;;;;12.68;3.85;;;11.40;59.40;;;;;;4242971;33;20160;-38
2021/04/12 02:23:35;;;;;;;3.78;2.28;;;11.40;59.30;;;;;;4240757;33;20069;-38
2021/04/12 02:26:15;;;;;;;;;;;11.40;59.40;;;;;;4263913;33;20053;-40
2021/04/12 02:29:09;;;;;;;15.93;8.38;;;11.40;59.30;;;;;;4256677;33;20396;-40
2021/04/12 02:31:50;;;;;;;15.23;6.55;;;11.40;59.40;;;;;;4289731;33;20059;-39
2021/04/12 02:35:04;;;;;;;1.70;0.95;;;11.50;59.50;;;;;;4290701;33;20169;-40
2021/04/12 02:38:21;;;;;;;8.13;3.22;;;11.50;59.50;;;;;;4239792;33;20576;-39
2021/04/12 02:41:15;;;;;;;1.48;1.10;;;11.50;59.40;;;;;;4240895;33;20515;-40
2021/04/12 02:44:07;;;;;;;12.25;6.07;;;11.50;59.30;;;;;;4228814;33;20152;-39
2021/04/12 02:47:08;;;;;;;16.77;5.60;;;11.50;59.20;;;;;;4238170;33;20078;-39
2021/04/12 02:50:08;;;;;;;28.40;10.77;;;11.60;59.30;;;;;;4224222;33;20073;-40
2021/04/12 02:53:28;;;;;;;17.08;7.10;;;11.60;59.00;;;;;;4235109;33;20176;-40
2021/04/12 02:56:20;;;;;;;3.53;2.50;;;11.60;58.90;;;;;;4212374;34;20504;-40
2021/04/12 02:58:55;;;;;;;27.80;9.93;;;11.60;58.90;;;;;;4195698;34;20073;-39
2021/04/12 03:02:16;;;;;;;19.98;8.23;;;11.60;58.90;;;;;;4240324;33;20065;-40
2021/04/12 03:04:51;;;;;;;13.52;6.50;;;11.70;58.90;;;;;;4243494;33;20089;-40
2021/04/12 03:07:39;;;;;;;;;;;11.70;58.60;;;;;;4254936;33;20072;-40
2021/04/12 03:10:20;;;;;;;11.52;4.22;;;11.70;58.40;;;;;;4239858;33;19980;-40
2021/04/12 03:13:10;;;;;;;7.00;3.03;;;11.60;59.00;;;;;;4247281;33;20590;-40
2021/04/12 03:16:29;;;;;;;5.45;2.72;;;11.60;58.60;;;;;;4271576;33;20108;-40
2021/04/12 03:19:02;;;;;;;5.35;1.92;;;11.50;58.80;;;;;;4282584;33;20076;-39
2021/04/12 03:21:55;;;;;;;9.32;3.35;;;11.50;59.50;;;;;;4270476;33;20142;-41
2021/04/12 03:24:28;;;;;;;13.82;4.70;;;11.50;59.00;;;;;;4259280;33;20057;-38
2021/04/12 03:27:26;;;;;;;9.63;5.55;;;11.50;58.90;;;;;;4242352;33;20080;-39
2021/04/12 03:30:19;;;;;;;12.32;5.07;;;11.50;59.00;;;;;;4225903;33;20233;-37
2021/04/12 03:33:19;;;;;;;13.02;6.60;;;11.50;58.90;;;;;;4208006;33;20080;-40
2021/04/12 03:36:09;;;;;;;19.55;7.55;;;11.50;59.10;;;;;;4225622;33;20084;-39
2021/04/12 03:38:36;;;;;;;22.80;8.15;;;11.50;59.20;;;;;;4225999;33;20089;-40
2021/04/12 03:41:22;;;;;;;19.00;8.07;;;11.50;59.30;;;;;;4225606;33;20081;-41
2021/04/12 03:44:09;;;;;;;19.67;8.10;;;11.50;59.30;;;;;;4215519;33;20479;-40
2021/04/12 03:46:45;;;;;;;20.80;8.65;;;11.50;59.40;;;;;;4205681;33;20109;-41
2021/04/12 03:49:41;;;;;;;21.12;8.40;;;11.50;59.40;;;;;;4240468;33;20068;-40
2021/04/12 03:52:38;;;;;;;10.65;5.70;;;11.50;59.50;;;;;;4242860;33;20081;-39
2021/04/12 03:55:35;;;;;;;22.67;9.35;;;11.50;59.60;;;;;;4281301;33;20532;-40
2021/04/12 03:58:31;;;;;;;20.92;8.23;;;11.60;60.20;;;;;;4316901;33;20143;-40
2021/04/12 04:01:37;;;;;;;7.20;3.60;;;11.70;59.60;;;;;;4317789;33;20554;-40
2021/04/12 04:04:38;;;;;;;25.40;9.45;;;11.80;59.50;;;;;;4316758;33;20068;-40
2021/04/12 04:07:32;;;;;;;21.00;8.48;;;11.90;59.00;;;;;;4321873;33;20098;-40
2021/04/12 04:10:26;;;;;;;11.88;5.82;;;11.90;58.80;;;;;;4322072;33;20070;-41
2021/04/12 04:13:37;;;;;;;7.82;4.12;;;11.90;58.90;;;;;;4354125;32;20216;-39
2021/04/12 04:16:14;;;;;;;17.33;7.28;;;12.00;59.00;;;;;;4350619;32;20521;-39
2021/04/12 04:19:01;;;;;;;22.75;8.75;;;12.00;58.80;;;;;;4360862;32;20089;-40
2021/04/12 04:22:17;;;;;;;19.33;8.13;;;12.10;58.60;;;;;;4305177;33;20075;-40
2021/04/12 04:25:30;;;;;;;15.43;8.10;;;12.10;58.50;;;;;;4284676;33;20094;-40
2021/04/12 04:39:50;;;;;;;11.85;5.05;;;12.10;58.00;;;;;;3875096;37;20070;-40
2021/04/12 04:42:49;;;;;;;16.92;6.20;;;12.70;59.00;;;;;;4430857;32;20176;-40
2021/04/12 04:45:34;;;;;;;9.52;4.20;;;12.90;57.80;;;;;;4432178;32;20153;-40
2021/04/12 04:48:51;;;;;;;8.85;5.50;;;13.10;57.20;;;;;;4417985;32;20060;-39
2021/04/12 04:51:53;;;;;;;14.95;7.00;;;13.20;57.10;;;;;;4416449;32;20473;-40
2021/04/12 04:55:04;;;;;;;13.57;6.40;;;13.30;56.60;;;;;;4404868;32;20608;-40
2021/04/12 04:58:00;;;;;;;17.15;6.57;;;13.50;56.60;;;;;;4414998;32;20166;-40
2021/04/12 05:00:51;;;;;;;13.38;6.82;;;13.60;56.40;;;;;;4416343;32;20076;-40
2021/04/12 05:04:15;;;;;;;13.70;6.50;;;13.80;56.10;;;;;;4416404;32;20137;-41
2021/04/12 05:07:26;;;;;;;17.17;8.95;;;14.00;55.70;;;;;;4411486;32;20105;-41
2021/04/12 05:10:40;;;;;;;8.70;3.25;;;14.10;55.20;;;;;;4389042;32;20570;-40
2021/04/12 05:13:31;;;;;;;14.13;4.72;;;14.30;55.00;;;;;;4385581;32;20157;-40
2021/04/12 05:16:34;;;;;;;5.80;1.98;;;14.50;54.90;;;;;;4356090;32;20081;-40
2021/04/12 05:19:08;;;;;;;22.40;8.15;;;14.70;54.50;;;;;;4367886;32;20065;-39
2021/04/12 05:22:20;;;;;;;10.70;5.43;;;14.90;53.80;;;;;;4367853;32;20443;-40
2021/04/12 05:25:33;;;;;;;14.20;5.57;;;15.20;54.10;;;;;;4367907;32;20142;-40
2021/04/12 05:28:43;;;;;;;12.55;3.30;;;15.50;52.80;;;;;;4367835;32;20070;-39
2021/04/12 05:31:39;;;;;;;14.93;6.90;;;15.70;52.00;;;;;;4355110;32;20140;-39
2021/04/12 05:34:36;;;;;;;9.90;3.53;;;15.80;51.20;;;;;;4342649;32;20515;-40
2021/04/12 05:37:29;;;;;;;9.98;5.78;;;15.90;50.90;;;;;;4352885;32;20085;-40
2021/04/12 05:40:33;;;;;;;7.68;3.78;;;16.00;50.40;;;;;;4315865;33;20650;-40
2021/04/12 05:44:02;;;;;;;4.78;2.60;;;16.10;50.50;;;;;;4316402;33;20064;-41
2021/04/12 05:47:05;;;;;;;12.05;6.62;;;16.20;50.50;;;;;;4306332;33;20091;-40
2021/04/12 05:49:53;;;;;;;21.25;8.45;;;16.40;50.30;;;;;;4327994;33;20155;-41
2021/04/12 05:53:05;;;;;;;18.12;8.85;;;16.60;49.70;;;;;;4328021;33;20549;-42
2021/04/12 05:56:22;;;;;;;9.23;4.43;;;16.90;49.80;;;;;;4327919;33;20721;-40
2021/04/12 05:59:15;;;;;;;7.87;3.75;;;17.10;48.80;;;;;;4327837;33;20074;-40
2021/04/12 06:02:20;;;;;;;13.32;5.45;;;17.30;48.30;;;;;;4328124;33;20082;-41
2021/04/12 06:05:07;;;;;;;11.82;4.37;;;17.50;48.00;;;;;;4327973;33;20486;-39
2021/04/12 06:07:57;;;;;;;11.77;3.62;;;17.70;48.00;;;;;;4327760;33;20071;-40
2021/04/12 06:11:03;;;;;;;15.63;6.18;;;17.90;47.30;;;;;;4331355;33;20094;-42
2021/04/12 06:14:10;;;;;;;6.55;3.97;;;18.10;47.00;;;;;;4342094;33;20098;-41
2021/04/12 06:17:10;;;;;;;13.25;5.25;;;18.30;46.70;;;;;;4338083;33;20081;-41
2021/04/12 06:20:28;;;;;;;14.00;5.22;;;18.50;46.20;;;;;;4342350;33;20467;-42
2021/04/12 06:23:17;;;;;;;10.82;4.95;;;18.80;46.00;;;;;;4380777;32;20057;-40
2021/04/12 06:26:36;;;;;;;20.73;8.35;;;18.90;45.60;;;;;;4389928;32;20586;-41
2021/04/12 06:29:52;;;;;;;12.75;6.12;;;19.00;45.30;;;;;;4389616;32;20506;-41
2021/04/12 06:32:40;;;;;;;8.90;6.60;;;19.10;45.30;;;;;;4389292;32;20446;-42
2021/04/12 06:35:34;;;;;;;7.30;2.80;;;19.30;45.30;;;;;;4388021;32;20051;-41
2021/04/12 06:38:33;;;;;;;5.78;3.00;;;19.40;45.10;;;;;;4387886;32;20178;-40
2021/04/12 06:41:44;;;;;;;17.75;5.82;;;19.50;45.60;;;;;;4361061;32;20565;-42
2021/04/12 06:44:55;;;;;;;18.05;8.55;;;19.70;44.90;;;;;;4371605;32;20718;-41
2021/04/12 06:47:57;;;;;;;11.68;5.30;;;19.80;45.70;;;;;;4362274;32;20470;-40
2021/04/12 06:50:39;;;;;;;8.73;3.78;;;20.00;45.00;;;;;;4371439;32;20109;-40
2021/04/12 06:53:53;;;;;;;28.77;8.90;;;20.10;44.80;;;;;;4371543;32;20505;-40
2021/04/12 06:56:23;;;;;;;12.63;4.53;;;20.20;44.50;;;;;;4360945;32;20080;-40
2021/04/12 06:59:37;;;;;;;13.32;7.28;;;20.30;44.40;;;;;;4371813;32;20096;-41
2021/04/12 07:03:03;;;;;;;16.87;8.00;;;20.40;44.60;;;;;;4360180;32;20089;-42
2021/04/12 07:05:50;;;;;;;4.97;2.20;;;20.50;44.40;;;;;;4361795;32;20546;-41
2021/04/12 07:08:56;;;;;;;18.70;7.40;;;20.60;44.00;;;;;;4371377;32;20502;-47
2021/04/12 07:11:40;;;;;;;36.88;11.02;;;20.70;44.20;;;;;;4364552;32;20066;-41
2021/04/12 07:14:32;;;;;;;20.37;8.57;;;20.80;44.50;;;;;;4388769;32;20073;-41
2021/04/12 07:17:17;;;;;;;18.42;10.30;;;21.00;44.00;;;;;;4388969;32;20171;-40
2021/04/12 07:20:43;;;;;;;32.30;11.95;;;21.20;43.80;;;;;;4388831;32;20081;-42
2021/04/12 07:23:59;;;;;;;61.45;14.27;;;21.30;42.70;;;;;;4330605;33;20063;-42
2021/04/12 07:26:52;;;;;;;26.58;10.57;;;21.60;42.60;;;;;;4342228;33;20062;-42
2021/04/12 07:29:40;;;;;;;16.25;8.90;;;21.90;42.60;;;;;;4329663;33;20099;-41
2021/04/12 07:33:02;;;;;;;24.65;11.90;;;22.10;41.90;;;;;;4341170;33;20532;-41
2021/04/12 07:36:20;;;;;;;17.65;7.80;;;22.30;41.60;;;;;;4341452;33;20167;-37
2021/04/12 07:39:49;;;;;;;13.52;6.47;;;22.50;41.10;;;;;;4330628;33;20214;-40
2021/04/12 07:42:55;;;;;;;9.43;4.40;;;22.70;40.60;;;;;;4311611;33;20047;-41
2021/04/12 07:45:28;;;;;;;14.38;7.45;;;22.90;40.30;;;;;;4316078;33;20106;-42
2021/04/12 07:48:18;;;;;;;5.20;2.72;;;23.10;40.00;;;;;;4326561;33;20203;-42
2021/04/12 07:51:15;;;;;;;19.12;5.57;;;23.20;40.00;;;;;;4326690;33;20140;-42
2021/04/12 07:54:22;;;;;;;8.93;2.78;;;23.30;39.70;;;;;;4357688;32;20077;-40
2021/04/12 07:57:45;;;;;;;6.15;3.37;;;23.50;39.50;;;;;;4388656;32;20069;-42
2021/04/12 08:00:54;;;;;;;13.65;7.50;;;23.70;39.60;;;;;;4388427;32;20089;-43
2021/04/12 08:04:04;;;;;;;16.30;6.25;;;23.80;39.30;;;;;;4387953;32;20100;-42
2021/04/12 08:07:26;;;;;;;30.83;10.13;;;24.00;40.30;;;;;;4388632;32;20174;-42
2021/04/12 08:10:29;;;;;;;16.62;10.77;;;24.10;36.90;;;;;;4386512;32;20061;-43
2021/04/12 08:13:39;;;;;;;30.08;10.45;;;24.20;35.40;;;;;;4388334;32;20173;-42
2021/04/12 08:17:02;;;;;;;31.52;11.23;;;24.10;35.40;;;;;;4386621;32;20165;-42
2021/04/12 08:19:35;;;;;;;44.80;12.68;;;24.10;35.30;;;;;;4388195;32;20170;-42
2021/04/12 08:22:31;;;;;;;32.53;11.43;;;24.10;35.40;;;;;;4388423;32;20069;-42
2021/04/12 08:25:33;;;;;;;23.65;10.70;;;24.10;35.40;;;;;;4388117;32;20477;-42
2021/04/12 08:28:33;;;;;;;16.30;11.63;;;24.20;35.20;;;;;;4374151;32;20060;-42
2021/04/12 08:31:34;;;;;;;27.90;11.65;;;24.20;35.00;;;;;;4388443;32;20058;-40
2021/04/12 08:34:43;;;;;;;22.77;11.15;;;24.10;35.40;;;;;;4388305;32;20069;-40
2021/04/12 08:37:59;;;;;;;13.43;4.07;;;24.10;35.90;;;;;;4387885;32;20062;-42
2021/04/12 08:41:06;;;;;;;7.72;4.45;;;24.20;38.30;;;;;;4388465;32;20496;-41
2021/04/12 08:44:21;;;;;;;29.58;11.88;;;24.50;38.60;;;;;;4388002;32;20078;-41
2021/04/12 08:47:28;;;;;;;17.27;8.13;;;24.90;36.90;;;;;;4388175;32;20145;-41
2021/04/12 08:50:15;;;;;;;8.93;4.82;;;25.20;37.40;;;;;;4386949;32;20081;-41
2021/04/12 08:53:16;;;;;;;17.15;8.63;;;25.40;37.30;;;;;;4386390;32;20077;-42
2021/04/12 08:56:38;;;;;;;26.85;12.02;;;25.60;36.90;;;;;;4388191;32;20065;-42
2021/04/12 08:59:41;;;;;;;19.42;10.30;;;25.90;36.70;;;;;;4387745;32;20072;-39
2021/04/12 09:02:51;;;;;;;16.42;6.03;;;26.00;36.40;;;;;;4388073;32;20092;-42
2021/04/12 09:06:23;;;;;;;15.52;8.25;;;26.10;36.40;;;;;;4387918;32;20145;-43
2021/04/12 09:09:46;;;;;;;29.80;13.45;;;26.20;36.30;;;;;;4340982;32;20074;-42
2021/04/12 09:12:37;;;;;;;27.60;11.05;;;26.40;35.90;;;;;;4387540;32;20586;-41
2021/04/12 09:15:49;;;;;;;31.27;13.77;;;26.40;34.10;;;;;;4389444;32;20094;-41
2021/04/12 09:18:59;;;;;;;29.60;13.27;;;26.40;33.70;;;;;;4390351;32;20166;-42
2021/04/12 09:21:59;;;;;;;24.92;13.18;;;26.40;35.50;;;;;;4343190;33;20180;-42
2021/04/12 09:24:37;;;;;;;26.90;12.00;;;26.50;35.80;;;;;;4342805;33;20114;-41
2021/04/12 09:27:43;;;;;;;9.35;4.25;;;26.50;35.70;;;;;;4382009;32;20445;-43
2021/04/12 09:31:07;;;;;;;17.17;9.30;;;26.60;35.80;;;;;;4390157;32;20573;-42
2021/04/12 09:34:01;;;;;;;24.83;9.65;;;26.80;35.50;;;;;;4376897;32;20073;-42
2021/04/12 09:36:42;;;;;;;13.57;5.18;;;27.00;35.50;;;;;;4390633;32;20069;-40
2021/04/12 09:39:27;;;;;;;10.63;5.93;;;27.20;35.20;;;;;;4388657;32;20522;-42
2021/04/12 09:42:37;;;;;;;24.25;7.62;;;27.40;34.90;;;;;;4390408;32;20062;-42
2021/04/12 09:45:51;;;;;;;25.65;11.02;;;27.50;34.60;;;;;;4390500;32;20074;-41
2021/04/12 09:48:55;;;;;;;28.42;12.60;;;27.80;32.70;;;;;;4389204;32;20082;-43
2021/04/12 09:51:49;;;;;;;21.45;12.43;;;27.80;32.00;;;;;;4390163;32;20138;-43
2021/04/12 09:54:40;;;;;;;44.80;13.00;;;27.60;32.50;;;;;;4388333;32;20070;-41
2021/04/12 09:58:02;;;;;;;24.33;11.73;;;27.30;32.30;;;;;;4388825;32;20161;-41
2021/04/12 10:01:09;;;;;;;27.35;13.60;;;27.20;31.90;;;;;;4389753;32;20167;-42
2021/04/12 10:04:02;;;;;;;42.97;15.90;;;26.90;32.30;;;;;;4389879;32;20485;-41
2021/04/12 10:07:09;;;;;;;27.33;13.20;;;26.70;33.00;;;;;;4390444;32;20077;-42
2021/04/12 10:09:50;;;;;;;43.10;14.80;;;26.40;32.70;;;;;;4390535;32;20069;-43
2021/04/12 10:12:40;;;;;;;26.37;12.02;;;26.10;32.90;;;;;;4390115;32;20177;-41
2021/04/12 10:15:19;;;;;;;31.00;13.82;;;26.00;33.20;;;;;;4390409;32;20073;-42
2021/04/12 10:18:23;;;;;;;31.15;13.55;;;25.90;33.30;;;;;;4389886;32;20069;-41
2021/04/12 10:20:57;;;;;;;55.22;14.98;;;25.70;33.40;;;;;;4388233;32;20081;-42
2021/04/12 10:23:30;;;;;;;60.12;15.43;;;25.70;34.10;;;;;;4359713;32;20235;-42
2021/04/12 10:26:16;;;;;;;38.15;13.13;;;25.60;34.10;;;;;;4347756;32;20066;-41
2021/04/12 10:28:50;;;;;;;43.38;14.20;;;25.60;34.00;;;;;;4359921;32;20077;-42
2021/04/12 10:31:48;;;;;;;30.15;12.57;;;25.60;34.10;;;;;;4347334;32;20670;-43
2021/04/12 10:34:29;;;;;;;33.80;10.23;;;25.50;34.60;;;;;;4361273;32;20154;-44
2021/04/12 10:37:32;;;;;;;28.87;12.40;;;25.50;32.70;;;;;;4359366;32;20078;-41
2021/04/12 10:40:18;;;;;;;33.90;14.23;;;25.30;33.20;;;;;;4371913;32;20076;-40
2021/04/12 10:42:53;;;;;;;34.22;15.40;;;25.00;34.80;;;;;;4348109;32;20089;-41
2021/04/12 10:45:47;;;;;;;39.88;13.15;;;24.80;36.00;;;;;;4372060;32;20071;-42
2021/04/12 10:48:22;;;;;;;43.33;10.32;;;24.80;36.90;;;;;;4347096;32;20073;-42
2021/04/12 10:51:01;;;;;;;41.08;12.10;;;24.80;37.40;;;;;;4359703;32;20158;-41
2021/04/12 10:54:07;;;;;;;27.52;10.55;;;24.90;37.80;;;;;;4373207;32;20078;-41
2021/04/12 10:56:53;;;;;;;24.92;10.13;;;25.00;37.60;;;;;;4388890;32;20072;-42
2021/04/12 10:59:44;;;;;;;31.42;11.30;;;25.20;37.60;;;;;;4387454;32;20094;-41
2021/04/12 11:02:24;;;;;;;61.20;12.82;;;25.40;37.90;;;;;;4389050;32;20146;-39
2021/04/12 11:05:10;;;;;;;32.53;10.05;;;25.70;38.30;;;;;;4387330;32;20517;-43
2021/04/12 11:08:18;;;;;;;37.13;10.93;;;26.00;37.90;;;;;;4356323;32;20073;-40
2021/04/12 11:11:22;;;;;;;17.67;7.32;;;26.30;37.80;;;;;;4334744;32;20062;-40
2021/04/12 11:14:02;;;;;;;17.05;8.98;;;26.60;37.50;;;;;;4356140;32;20059;-40
2021/04/12 11:16:52;;;;;;;19.35;7.68;;;26.80;37.20;;;;;;4356526;32;20070;-43
2021/04/12 11:19:37;;;;;;;20.55;7.82;;;27.00;34.70;;;;;;4344281;32;20070;-43
2021/04/12 11:22:32;;;;;;;24.55;8.23;;;27.10;33.20;;;;;;4356323;32;20118;-40
2021/04/12 11:25:54;;;;;;;19.60;9.05;;;27.20;32.90;;;;;;4356137;32;20525;-41
2021/04/12 11:28:32;;;;;;;21.35;8.95;;;27.20;32.90;;;;;;4356118;32;20058;-41
2021/04/12 11:31:16;;;;;;;30.95;8.57;;;27.00;32.40;;;;;;4356140;32;20062;-39
2021/04/12 11:34:21;;;;;;;24.02;9.30;;;26.80;32.60;;;;;;4344703;32;20145;-37
2021/04/12 11:37:23;;;;;;;16.10;7.95;;;26.60;33.00;;;;;;4343661;32;20071;-40
2021/04/12 11:40:07;;;;;;;26.10;9.07;;;26.30;32.60;;;;;;4372764;32;20485;-40
2021/04/12 11:42:37;;;;;;;16.77;8.33;;;26.20;32.70;;;;;;4360438;32;20117;-40
2021/04/12 11:45:16;;;;;;;16.05;7.93;;;26.00;32.90;;;;;;4372183;32;20659;-40
2021/04/12 11:47:51;;;;;;;14.82;7.62;;;25.90;32.80;;;;;;4360298;32;20061;-42
2021/04/12 11:50:28;;;;;;;18.85;7.43;;;25.90;32.80;;;;;;4371923;32;20090;-40
2021/04/12 11:52:58;;;;;;;38.88;10.30;;;25.90;33.10;;;;;;4371730;32;20058;-40
2021/04/12 11:55:38;;;;;;;21.25;7.60;;;26.00;33.60;;;;;;4371580;32;20537;-41
2021/04/12 11:59:03;;;;;;;23.27;8.63;;;26.00;33.30;;;;;;4371655;32;20637;-42
2021/04/12 12:01:53;;;;;;;24.70;9.85;;;26.10;33.50;;;;;;4334978;32;20143;-41
2021/04/12 12:04:51;;;;;;;21.15;7.72;;;26.20;33.20;;;;;;4361138;32;20133;-41
2021/04/12 12:07:30;;;;;;;39.20;8.88;;;26.30;33.30;;;;;;4360870;32;20094;-41
2021/04/12 12:10:18;;;;;;;26.00;9.50;;;26.40;32.80;;;;;;4371700;32;20551;-41
2021/04/12 12:13:19;;;;;;;27.95;9.77;;;26.40;31.90;;;;;;4360038;32;20146;-39
2021/04/12 12:16:22;;;;;;;17.48;9.02;;;26.40;31.90;;;;;;4373045;32;20065;-39
2021/04/12 12:19:18;;;;;;;23.48;8.82;;;26.40;31.90;;;;;;4372741;32;20069;-41
2021/04/12 12:22:07;;;;;;;26.40;9.30;;;26.40;32.20;;;;;;4372191;32;20066;-40
2021/04/12 12:25:14;;;;;;;21.17;9.85;;;26.30;32.80;;;;;;4371841;32;20070;-41
2021/04/12 12:28:02;;;;;;;12.37;9.13;;;26.30;33.20;;;;;;4383968;32;20120;-42
2021/04/12 12:30:54;;;;;;;44.13;13.43;;;26.20;32.70;;;;;;4371695;32;20579;-40
2021/04/12 12:33:48;;;;;;;31.70;9.80;;;26.10;32.80;;;;;;4371135;32;20149;-40
2021/04/12 12:36:31;;;;;;;32.80;10.27;;;26.10;33.10;;;;;;4371248;32;20155;-41
2021/04/12 12:39:37;;;;;;;29.67;8.50;;;26.00;32.10;;;;;;4372295;32;20062;-41
2021/04/12 12:42:11;;;;;;;23.02;8.38;;;25.80;32.30;;;;;;4363598;32;20527;-41
2021/04/12 12:44:37;;;;;;;20.42;8.98;;;25.60;32.80;;;;;;4359506;32;20078;-42
2021/04/12 12:47:14;;;;;;;20.12;8.90;;;25.40;33.20;;;;;;4371502;32;20062;-41
2021/04/12 12:49:47;;;;;;;26.45;9.32;;;25.30;33.60;;;;;;4360025;32;20104;-41
2021/04/12 12:52:37;;;;;;;18.75;9.07;;;25.20;33.80;;;;;;4374533;32;20085;-41
2021/04/12 12:55:10;;;;;;;27.35;10.63;;;25.20;34.10;;;;;;4374297;32;20086;-41
2021/04/12 12:57:40;;;;;;;48.15;11.35;;;25.10;34.60;;;;;;4374454;32;20541;-40
2021/04/12 13:00:35;;;;;;;41.67;10.60;;;25.10;35.10;;;;;;4374301;32;20435;-41
2021/04/12 13:03:28;;;;;;;32.42;9.48;;;25.20;35.50;;;;;;4374113;32;20502;-42
2021/04/12 13:05:57;;;;;;;58.85;11.30;;;25.20;35.50;;;;;;4374280;32;20075;-41
2021/04/12 13:08:29;;;;;;;38.40;9.88;;;25.30;35.80;;;;;;4361760;32;20087;-40
2021/04/12 13:10:56;;;;;;;26.45;11.00;;;25.40;36.00;;;;;;4374401;32;20058;-41
2021/04/12 13:13:35;;;;;;;51.70;11.50;;;25.50;35.80;;;;;;4375466;32;20065;-40
2021/04/12 13:16:18;;;;;;;27.15;9.45;;;25.60;35.60;;;;;;4361796;32;20139;-42
2021/04/12 13:18:57;;;;;;;39.00;10.38;;;25.70;35.70;;;;;;4374276;32;20564;-41
2021/04/12 13:21:26;;;;;;;41.17;9.75;;;25.70;35.70;;;;;;4374362;32;20069;-41
2021/04/12 13:24:08;;;;;;;36.03;9.63;;;25.80;35.70;;;;;;4374050;32;20510;-42
2021/04/12 13:26:51;;;;;;;34.25;10.70;;;25.80;35.80;;;;;;4375330;32;20078;-42
2021/04/12 13:29:26;;;;;;;33.28;9.20;;;25.90;36.70;;;;;;4375537;32;20070;-42
2021/04/12 13:32:41;;;;;;;57.75;11.75;;;26.00;35.90;;;;;;4374179;32;20082;-41
2021/04/12 13:35:08;;;;;;;26.00;7.60;;;26.00;35.60;;;;;;4372786;32;20069;-41
2021/04/12 13:37:55;;;;;;;67.53;10.15;;;26.10;35.70;;;;;;4373535;32;20078;-40
2021/04/12 13:40:46;;;;;;;36.55;9.65;;;26.20;34.40;;;;;;4375301;32;20139;-41
2021/04/12 13:43:13;;;;;;;57.62;12.07;;;26.30;34.10;;;;;;4367539;32;20078;-41
2021/04/12 13:45:45;;;;;;;60.05;11.15;;;26.30;33.20;;;;;;4361597;32;20512;-42
2021/04/12 13:48:26;;;;;;;35.30;9.75;;;26.10;31.60;;;;;;4374914;32;20528;-42
2021/04/12 13:51:05;;;;;;;51.45;10.35;;;25.90;31.40;;;;;;4373700;32;20058;-41
2021/04/12 13:53:52;;;;;;;40.95;8.98;;;25.80;31.10;;;;;;4373794;32;20073;-40
2021/04/12 13:56:24;;;;;;;48.30;9.70;;;25.50;31.80;;;;;;4373490;32;20142;-41
2021/04/12 13:59:23;;;;;;;39.05;9.30;;;25.30;31.80;;;;;;4373924;32;20194;-41
2021/04/12 14:02:05;;;;;;;38.53;9.90;;;25.10;31.80;;;;;;4373504;32;20514;-41
2021/04/12 14:04:47;;;;;;;60.05;11.20;;;24.90;32.00;;;;;;4373624;32;20078;-40
2021/04/12 14:07:50;;;;;;;91.35;15.30;;;24.70;32.60;;;;;;4363266;32;20081;-40
2021/04/12 14:10:50;;;;;;;36.47;8.75;;;24.50;33.10;;;;;;4361398;32;20228;-40
2021/04/12 14:13:25;;;;;;;61.88;9.93;;;24.40;32.80;;;;;;4373202;32;20070;-42
2021/04/12 14:16:21;;;;;;;45.38;10.52;;;24.30;33.10;;;;;;4373336;32;20055;-41
2021/04/12 14:19:14;;;;;;;63.58;12.65;;;24.30;34.10;;;;;;4368982;32;20061;-41
2021/04/12 14:21:46;;;;;;;67.03;11.05;;;24.20;34.10;;;;;;4372756;32;20170;-41
2021/04/12 14:24:20;;;;;;;46.20;8.45;;;24.20;34.10;;;;;;4360760;32;20554;-41
2021/04/12 14:26:52;;;;;;;58.13;11.40;;;24.10;33.90;;;;;;4374431;32;20138;-42
2021/04/12 14:29:33;;;;;;;43.53;9.10;;;24.00;34.00;;;;;;4361341;32;20070;-41
2021/04/12 14:32:20;;;;;;;80.35;10.95;;;24.00;34.00;;;;;;4372902;32;20073;-43
2021/04/12 14:35:00;;;;;;;115.78;14.57;;;23.90;33.90;;;;;;4373293;32;20081;-42
2021/04/12 14:37:31;;;;;;;86.63;11.77;;;23.90;34.00;;;;;;4356893;32;20078;-41
2021/04/12 14:40:29;;;;;;;27.50;6.07;;;23.80;34.40;;;;;;4356498;32;20078;-41
2021/04/12 14:43:21;;;;;;;12.00;1.95;;;23.80;39.00;;;;;;4344521;32;20077;-42
2021/04/12 14:45:50;;;;;;;6.07;2.70;;;24.00;42.90;;;;;;4356827;32;20086;-41
2021/04/12 14:48:39;;;;;;;7.95;1.85;;;24.40;43.20;;;;;;4332236;32;20192;-41
2021/04/12 14:51:08;;;;;;;18.12;4.35;;;24.70;42.70;;;;;;4332436;32;20097;-41
2021/04/12 14:53:47;;;;;;;3.45;1.42;;;25.00;42.40;;;;;;4344532;32;20508;-42
2021/04/12 14:56:28;;;;;;;1.60;1.37;;;25.20;42.10;;;;;;4344629;32;20376;-41
2021/04/12 14:59:02;;;;;;;26.10;4.57;;;25.40;41.70;;;;;;4344258;32;20616;-38
2021/04/12 15:01:49;;;;;;;6.97;2.45;;;25.50;41.30;;;;;;4343998;32;20541;-39